createdAt,value
2023-05-19T00:00:27.728Z,4.50
2023-05-19T00:01:25.941Z,3.80
2023-05-19T00:02:25.951Z,4.30
2023-05-19T00:03:25.855Z,4.40
2023-05-19T00:04:25.718Z,4.00
2023-05-19T00:05:25.728Z,4.40
2023-05-19T00:06:25.798Z,4.10
2023-05-19T00:07:25.822Z,4.10
2023-05-19T00:08:25.730Z,4.40
2023-05-19T00:09:25.750Z,4.80
2023-05-19T00:10:25.700Z,4.30
2023-05-19T00:11:25.629Z,4.50
2023-05-19T00:12:25.631Z,4.90
2023-05-19T00:13:25.669Z,4.50
2023-05-19T00:14:27.093Z,4.10
2023-05-19T00:15:25.621Z,5.20
2023-05-19T00:16:25.741Z,4.50
2023-05-19T00:17:25.570Z,4.70
2023-05-19T00:18:25.610Z,4.40
2023-05-19T00:19:25.665Z,4.60
2023-05-19T00:20:25.668Z,4.60
2023-05-19T00:21:26.994Z,4.60
2023-05-19T00:22:25.592Z,4.20
2023-05-19T00:23:25.550Z,4.40
2023-05-19T00:24:25.505Z,4.50
2023-05-19T00:25:25.491Z,4.50
2023-05-19T00:26:25.442Z,4.30
2023-05-19T00:27:27.453Z,3.90
2023-05-19T00:28:25.529Z,4.30
2023-05-19T00:29:25.548Z,5.10
2023-05-19T00:30:25.448Z,4.40
2023-05-19T00:31:25.428Z,4.60
2023-05-19T00:32:25.490Z,4.90
2023-05-19T00:33:25.437Z,4.30
2023-05-19T00:34:25.585Z,4.50
2023-05-19T00:35:25.374Z,5.10
2023-05-19T00:36:25.384Z,4.90
2023-05-19T00:37:25.345Z,4.80
2023-05-19T00:38:25.375Z,4.40
2023-05-19T00:39:25.386Z,4.70
2023-05-19T00:40:25.318Z,4.80
2023-05-19T00:41:25.279Z,4.40
2023-05-19T00:42:25.307Z,5.20
2023-05-19T00:43:25.342Z,4.70
2023-05-19T00:44:25.302Z,4.70
2023-05-19T00:45:25.251Z,5.30
2023-05-19T00:46:25.382Z,5.00
2023-05-19T00:47:26.810Z,4.60
2023-05-19T00:48:25.300Z,5.40
2023-05-19T00:49:25.255Z,5.00
2023-05-19T00:50:25.216Z,5.00
2023-05-19T00:51:25.251Z,4.80
2023-05-19T00:52:25.158Z,5.10
2023-05-19T00:53:25.313Z,4.80
2023-05-19T00:54:25.181Z,5.20
2023-05-19T00:55:25.236Z,5.20
2023-05-19T00:56:25.116Z,5.10
2023-05-19T00:57:25.251Z,5.10
2023-05-19T00:58:25.266Z,5.10
2023-05-19T00:59:25.084Z,5.30
2023-05-19T01:00:26.172Z,5.20
2023-05-19T01:01:25.186Z,4.80
2023-05-19T01:02:25.258Z,4.80
2023-05-19T01:03:25.292Z,5.00
2023-05-19T01:04:25.085Z,5.90
2023-05-19T01:05:25.069Z,5.70
2023-05-19T01:06:25.020Z,6.00
2023-05-19T01:07:26.988Z,5.40
2023-05-19T01:08:25.121Z,5.70
2023-05-19T01:09:25.004Z,5.20
2023-05-19T01:10:24.975Z,5.90
2023-05-19T01:11:24.965Z,5.30
2023-05-19T01:12:26.966Z,5.90
2023-05-19T01:13:24.997Z,5.90
2023-05-19T01:14:25.010Z,5.60
2023-05-19T01:15:25.035Z,5.60
2023-05-19T01:16:25.060Z,5.50
2023-05-19T01:17:25.021Z,5.50
2023-05-19T01:18:24.876Z,5.70
2023-05-19T01:19:25.950Z,6.00
2023-05-19T01:20:24.923Z,5.70
2023-05-19T01:21:24.884Z,6.20
2023-05-19T01:22:24.884Z,6.10
2023-05-19T01:23:24.831Z,5.80
2023-05-19T01:24:24.831Z,6.20
2023-05-19T01:25:24.902Z,6.60
2023-05-19T01:26:26.848Z,5.80
2023-05-19T01:27:24.897Z,6.70
2023-05-19T01:28:24.864Z,6.10
2023-05-19T01:29:24.723Z,5.90
2023-05-19T01:30:24.800Z,5.90
2023-05-19T01:31:24.868Z,6.10
2023-05-19T01:32:24.718Z,6.60
2023-05-19T01:33:26.682Z,6.10
2023-05-19T01:34:24.741Z,6.10
2023-05-19T01:35:24.839Z,6.60
2023-05-19T01:36:24.690Z,6.40
2023-05-19T01:37:24.681Z,6.70
2023-05-19T01:38:24.749Z,7.00
2023-05-19T01:39:26.241Z,6.90
2023-05-19T01:40:24.687Z,6.50
2023-05-19T01:41:24.667Z,6.20
2023-05-19T01:42:24.631Z,6.70
2023-05-19T01:43:24.622Z,6.60
2023-05-19T01:44:24.647Z,7.20
2023-05-19T01:45:24.741Z,7.00
2023-05-19T01:46:26.240Z,7.10
2023-05-19T01:47:24.727Z,7.30
2023-05-19T01:48:24.579Z,7.60
2023-05-19T01:49:24.614Z,8.40
2023-05-19T01:50:24.579Z,8.10
2023-05-19T01:51:24.593Z,8.30
2023-05-19T01:52:24.578Z,8.80
2023-05-19T01:53:24.660Z,9.10
2023-05-19T01:54:24.580Z,9.60
2023-05-19T01:55:24.548Z,8.90
2023-05-19T01:56:24.508Z,8.70
2023-05-19T01:57:24.447Z,9.20
2023-05-19T01:58:24.434Z,9.50
2023-05-19T01:59:26.387Z,9.50
2023-05-19T02:00:24.445Z,9.20
2023-05-19T02:01:24.488Z,9.30
2023-05-19T02:02:24.479Z,9.20
2023-05-19T02:03:24.402Z,9.20
2023-05-19T02:04:24.425Z,9.20
2023-05-19T02:05:24.368Z,9.70
2023-05-19T02:06:25.787Z,9.10
2023-05-19T02:07:24.484Z,8.70
2023-05-19T02:08:24.397Z,8.90
2023-05-19T02:09:24.450Z,8.50
2023-05-19T02:10:24.318Z,8.00
2023-05-19T02:11:24.315Z,8.90
2023-05-19T02:12:24.373Z,8.50
2023-05-19T02:13:25.853Z,8.60
2023-05-19T02:14:24.263Z,8.00
2023-05-19T02:15:24.261Z,8.40
2023-05-19T02:16:24.347Z,9.10
2023-05-19T02:17:24.292Z,8.60
2023-05-19T02:18:24.178Z,8.30
2023-05-19T02:19:24.645Z,9.10
2023-05-19T02:20:24.235Z,7.50
2023-05-19T02:21:24.278Z,8.10
2023-05-19T02:22:24.273Z,8.10
2023-05-19T02:23:24.184Z,8.40
2023-05-19T02:24:24.189Z,8.50
2023-05-19T02:25:24.207Z,8.90
2023-05-19T02:26:25.802Z,8.60
2023-05-19T02:27:24.172Z,8.80
2023-05-19T02:28:24.137Z,9.20
2023-05-19T02:29:24.179Z,9.80
2023-05-19T02:30:24.122Z,9.60
2023-05-19T02:31:24.171Z,9.70
2023-05-19T02:32:24.136Z,10.00
2023-05-19T02:33:25.582Z,10.10
2023-05-19T02:34:24.131Z,10.50
2023-05-19T02:35:24.149Z,10.50
2023-05-19T02:36:24.159Z,10.80
2023-05-19T02:37:24.044Z,9.30
2023-05-19T02:38:24.070Z,10.20
2023-05-19T02:39:24.029Z,10.10
2023-05-19T02:40:26.066Z,10.50
2023-05-19T02:41:24.081Z,10.90
2023-05-19T02:42:23.989Z,10.30
2023-05-19T02:43:23.974Z,10.00
2023-05-19T02:44:23.977Z,10.20
2023-05-19T02:45:24.011Z,10.00
2023-05-19T02:46:24.013Z,9.60
2023-05-19T02:47:26.131Z,10.40
2023-05-19T02:48:23.965Z,9.90
2023-05-19T02:49:24.066Z,9.60
2023-05-19T02:50:23.964Z,10.70
2023-05-19T02:51:23.927Z,9.90
2023-05-19T02:52:23.879Z,10.10
2023-05-19T02:53:23.858Z,9.80
2023-05-19T02:54:25.471Z,10.60
2023-05-19T02:55:23.900Z,10.40
2023-05-19T02:56:23.870Z,9.60
2023-05-19T02:57:23.924Z,10.20
2023-05-19T02:58:23.829Z,10.20
2023-05-19T02:59:25.620Z,10.20
2023-05-19T03:00:23.880Z,10.00
2023-05-19T03:01:23.796Z,10.20
2023-05-19T03:02:23.769Z,11.30
2023-05-19T03:03:23.845Z,9.90
2023-05-19T03:04:23.766Z,10.40
2023-05-19T03:05:23.717Z,10.10
2023-05-19T03:06:23.747Z,9.60
2023-05-19T03:07:25.684Z,10.30
2023-05-19T03:08:23.707Z,10.00
2023-05-19T03:09:23.755Z,9.90
2023-05-19T03:10:23.696Z,9.40
2023-05-19T03:11:23.662Z,9.70
2023-05-19T03:12:23.667Z,10.80
2023-05-19T03:13:23.743Z,9.80
2023-05-19T03:14:24.164Z,10.30
2023-05-19T03:15:23.655Z,10.90
2023-05-19T03:16:23.657Z,9.70
2023-05-19T03:17:23.773Z,9.90
2023-05-19T03:18:23.718Z,10.30
2023-05-19T03:19:23.697Z,10.10
2023-05-19T03:20:23.734Z,10.60
2023-05-19T03:21:23.563Z,11.10
2023-05-19T03:22:23.686Z,11.10
2023-05-19T03:23:23.588Z,10.60
2023-05-19T03:24:23.491Z,10.80
2023-05-19T03:25:23.570Z,10.20
2023-05-19T03:26:23.518Z,10.50
2023-05-19T03:27:25.345Z,10.80
2023-05-19T03:28:23.526Z,9.90
2023-05-19T03:29:23.476Z,10.60
2023-05-19T03:30:23.521Z,10.40
2023-05-19T03:31:23.467Z,10.40
2023-05-19T03:32:23.605Z,10.70
2023-05-19T03:33:23.690Z,10.60
2023-05-19T03:34:23.487Z,10.70
2023-05-19T03:35:23.441Z,11.40
2023-05-19T03:36:23.427Z,11.00
2023-05-19T03:37:23.404Z,11.30
2023-05-19T03:38:23.382Z,10.90
2023-05-19T03:39:23.396Z,10.70
2023-05-19T03:40:23.626Z,10.70
2023-05-19T03:41:23.368Z,10.70
2023-05-19T03:42:23.332Z,10.80
2023-05-19T03:43:23.334Z,11.30
2023-05-19T03:44:23.314Z,10.80
2023-05-19T03:45:23.307Z,10.50
2023-05-19T03:46:23.344Z,10.70
2023-05-19T03:47:23.490Z,10.30
2023-05-19T03:48:23.259Z,9.90
2023-05-19T03:49:23.395Z,10.00
2023-05-19T03:50:23.276Z,10.30
2023-05-19T03:51:23.314Z,10.70
2023-05-19T03:52:23.259Z,10.00
2023-05-19T03:53:23.381Z,10.70
2023-05-19T03:54:23.200Z,10.20
2023-05-19T03:55:23.293Z,10.00
2023-05-19T03:56:23.154Z,9.70
2023-05-19T03:57:23.212Z,9.80
2023-05-19T03:58:23.187Z,10.00
2023-05-19T03:59:23.323Z,9.80
2023-05-19T04:00:23.330Z,10.00
2023-05-19T04:01:23.185Z,10.00
2023-05-19T04:02:23.203Z,9.80
2023-05-19T04:03:23.152Z,9.80
2023-05-19T04:04:23.182Z,9.60
2023-05-19T04:05:23.073Z,9.50
2023-05-19T04:06:23.046Z,9.40
2023-05-19T04:07:23.094Z,9.50
2023-05-19T04:08:23.035Z,10.50
2023-05-19T04:09:23.068Z,9.90
2023-05-19T04:10:23.015Z,10.10
2023-05-19T04:11:23.029Z,9.40
2023-05-19T04:12:23.000Z,9.80
2023-05-19T04:13:23.062Z,9.50
2023-05-19T04:14:23.033Z,9.90
2023-05-19T04:15:22.994Z,10.00
2023-05-19T04:16:23.054Z,9.50
2023-05-19T04:17:23.015Z,9.90
2023-05-19T04:18:22.980Z,10.00
2023-05-19T04:19:24.594Z,10.10
2023-05-19T04:20:22.969Z,9.70
2023-05-19T04:21:22.917Z,10.10
2023-05-19T04:22:22.852Z,9.80
2023-05-19T04:23:22.914Z,10.10
2023-05-19T04:24:22.894Z,10.00
2023-05-19T04:25:22.899Z,9.70
2023-05-19T04:26:24.315Z,9.50
2023-05-19T04:27:22.943Z,9.90
2023-05-19T04:28:22.937Z,9.50
2023-05-19T04:29:22.825Z,9.40
2023-05-19T04:30:22.914Z,10.20
2023-05-19T04:31:22.905Z,9.60
2023-05-19T04:32:22.839Z,8.60
2023-05-19T04:33:22.890Z,9.60
2023-05-19T04:34:22.819Z,9.70
2023-05-19T04:35:22.790Z,9.30
2023-05-19T04:36:22.748Z,9.40
2023-05-19T04:37:22.778Z,9.40
2023-05-19T04:38:22.763Z,9.80
2023-05-19T04:39:22.737Z,9.80
2023-05-19T04:40:22.734Z,9.30
2023-05-19T04:41:22.801Z,8.90
2023-05-19T04:42:22.777Z,8.90
2023-05-19T04:43:22.680Z,9.40
2023-05-19T04:44:22.667Z,9.60
2023-05-19T04:45:22.733Z,8.60
2023-05-19T04:46:22.776Z,9.30
2023-05-19T04:47:24.099Z,10.10
2023-05-19T04:48:22.585Z,8.90
2023-05-19T04:49:22.619Z,8.30
2023-05-19T04:50:22.583Z,7.40
2023-05-19T04:51:22.589Z,8.00
2023-05-19T04:52:22.608Z,7.60
2023-05-19T04:53:24.539Z,7.70
2023-05-19T04:54:24.039Z,7.30
2023-05-19T04:55:22.598Z,7.20
2023-05-19T04:56:22.561Z,7.40
2023-05-19T04:57:22.496Z,7.20
2023-05-19T04:58:22.469Z,7.30
2023-05-19T04:59:22.502Z,7.60
2023-05-19T05:00:22.597Z,7.80
2023-05-19T05:01:22.695Z,7.90
2023-05-19T05:02:22.683Z,7.10
2023-05-19T05:03:22.576Z,7.20
2023-05-19T05:04:22.508Z,7.80
2023-05-19T05:05:22.566Z,7.80
2023-05-19T05:06:22.724Z,7.90
2023-05-19T05:07:24.257Z,8.40
2023-05-19T05:08:22.390Z,7.60
2023-05-19T05:09:24.158Z,8.30
2023-05-19T05:10:22.455Z,7.90
2023-05-19T05:11:22.518Z,8.20
2023-05-19T05:12:22.420Z,8.90
2023-05-19T05:13:22.339Z,8.40
2023-05-19T05:14:24.094Z,8.50
2023-05-19T05:15:22.393Z,8.80
2023-05-19T05:16:22.384Z,8.60
2023-05-19T05:17:22.381Z,8.70
2023-05-19T05:18:22.406Z,9.00
2023-05-19T05:19:22.430Z,8.00
2023-05-19T05:20:22.270Z,8.70
2023-05-19T05:21:22.247Z,8.10
2023-05-19T05:22:22.240Z,8.50
2023-05-19T05:23:22.243Z,7.80
2023-05-19T05:24:22.243Z,7.80
2023-05-19T05:25:23.715Z,7.70
2023-05-19T05:26:22.199Z,8.60
2023-05-19T05:27:22.171Z,7.60
2023-05-19T05:28:22.183Z,7.60
2023-05-19T05:29:22.163Z,7.10
2023-05-19T05:30:22.150Z,7.90
2023-05-19T05:31:22.248Z,7.60
2023-05-19T05:32:24.123Z,7.10
2023-05-19T05:33:22.304Z,7.10
2023-05-19T05:34:22.108Z,7.00
2023-05-19T05:35:22.083Z,6.80
2023-05-19T05:36:22.113Z,7.60
2023-05-19T05:37:22.072Z,7.40
2023-05-19T05:38:22.141Z,7.40
2023-05-19T05:39:22.069Z,6.90
2023-05-19T05:40:22.057Z,7.00
2023-05-19T05:41:22.052Z,6.90
2023-05-19T05:42:22.048Z,6.90
2023-05-19T05:43:23.844Z,6.40
2023-05-19T05:44:21.985Z,6.40
2023-05-19T05:45:24.029Z,5.90
2023-05-19T05:46:22.078Z,6.00
2023-05-19T05:47:22.073Z,6.70
2023-05-19T05:48:21.960Z,5.90
2023-05-19T05:49:21.969Z,6.10
2023-05-19T05:50:21.937Z,6.00
2023-05-19T05:51:22.268Z,5.70
2023-05-19T05:52:23.109Z,5.80
2023-05-19T05:53:22.419Z,6.00
2023-05-19T05:54:22.473Z,6.20
2023-05-19T05:55:22.924Z,6.10
2023-05-19T05:56:25.483Z,6.00
2023-05-19T05:57:24.269Z,5.40
2023-05-19T05:58:23.374Z,4.80
2023-05-19T05:59:24.689Z,5.40
2023-05-19T06:00:22.337Z,5.20
2023-05-19T06:01:24.416Z,4.90
2023-05-19T06:02:22.862Z,4.60
2023-05-19T06:03:22.777Z,4.80
2023-05-19T06:04:22.305Z,4.20
2023-05-19T06:05:22.545Z,4.40
2023-05-19T06:06:21.881Z,4.50
2023-05-19T06:07:22.507Z,4.50
2023-05-19T06:08:22.564Z,4.50
2023-05-19T06:09:22.562Z,4.80
2023-05-19T06:10:24.594Z,4.70
2023-05-19T06:11:23.233Z,3.90
2023-05-19T06:12:22.257Z,4.40
2023-05-19T06:13:22.054Z,4.20
2023-05-19T06:14:22.573Z,4.40
2023-05-19T06:15:22.746Z,4.00
2023-05-19T06:16:22.549Z,3.70
2023-05-19T06:17:22.022Z,4.00
2023-05-19T06:18:21.584Z,3.60
2023-05-19T06:19:21.740Z,3.60
2023-05-19T06:20:21.555Z,3.80
2023-05-19T06:21:21.511Z,3.60
2023-05-19T06:22:21.544Z,3.50
2023-05-19T06:23:21.820Z,3.70
2023-05-19T06:24:21.509Z,3.60
2023-05-19T06:25:21.868Z,3.50
2023-05-19T06:26:21.522Z,3.40
2023-05-19T06:27:21.666Z,3.70
2023-05-19T06:28:21.518Z,3.70
2023-05-19T06:29:23.421Z,3.50
2023-05-19T06:30:21.534Z,3.10
2023-05-19T06:31:21.804Z,3.30
2023-05-19T06:32:22.153Z,3.30
2023-05-19T06:33:22.460Z,3.60
2023-05-19T06:34:22.392Z,3.10
2023-05-19T06:35:23.247Z,3.30
2023-05-19T06:36:22.117Z,3.50
2023-05-19T06:37:21.459Z,3.40
2023-05-19T06:38:22.867Z,2.90
2023-05-19T06:39:21.474Z,3.00
2023-05-19T06:40:21.517Z,3.80
2023-05-19T06:41:23.059Z,3.00
2023-05-19T06:42:22.082Z,3.20
2023-05-19T06:43:21.858Z,3.00
2023-05-19T06:44:22.122Z,2.90
2023-05-19T06:45:21.334Z,2.70
2023-05-19T06:46:22.921Z,3.10
2023-05-19T06:47:21.366Z,2.80
2023-05-19T06:48:21.271Z,3.30
2023-05-19T06:49:21.397Z,2.90
2023-05-19T06:50:21.641Z,2.80
2023-05-19T06:51:22.834Z,3.00
2023-05-19T06:52:21.251Z,3.30
2023-05-19T06:53:21.250Z,2.70
2023-05-19T06:54:21.291Z,2.90
2023-05-19T06:55:21.252Z,3.10
2023-05-19T06:56:21.255Z,3.00
2023-05-19T06:57:21.311Z,2.90
2023-05-19T06:58:21.251Z,2.80
2023-05-19T06:59:22.702Z,2.50
2023-05-19T07:00:23.098Z,3.30
2023-05-19T07:01:22.760Z,3.40
2023-05-19T07:02:21.137Z,3.20
2023-05-19T07:03:21.327Z,2.80
2023-05-19T07:04:24.474Z,2.90
2023-05-19T07:05:21.160Z,2.80
2023-05-19T07:06:21.308Z,3.10
2023-05-19T07:07:21.096Z,2.90
2023-05-19T07:08:21.078Z,2.90
2023-05-19T07:09:23.677Z,2.70
2023-05-19T07:10:21.398Z,2.80
2023-05-19T07:11:21.033Z,2.90
2023-05-19T07:12:21.268Z,2.80
2023-05-19T07:13:21.009Z,3.00
2023-05-19T07:14:22.934Z,2.70
2023-05-19T07:15:22.987Z,3.10
2023-05-19T07:16:21.225Z,2.70
2023-05-19T07:17:21.064Z,3.00
2023-05-19T07:18:20.982Z,2.80
2023-05-19T07:19:20.997Z,3.50
2023-05-19T07:20:20.923Z,3.00
2023-05-19T07:21:20.946Z,3.00
2023-05-19T07:22:20.956Z,2.90
2023-05-19T07:23:20.903Z,2.40
2023-05-19T07:24:21.387Z,3.00
2023-05-19T07:25:21.169Z,3.10
2023-05-19T07:26:20.936Z,2.80
2023-05-19T07:27:20.938Z,2.90
2023-05-19T07:28:20.846Z,3.30
2023-05-19T07:29:22.362Z,2.70
2023-05-19T07:30:20.850Z,2.70
2023-05-19T07:31:20.945Z,3.30
2023-05-19T07:32:21.003Z,3.10
2023-05-19T07:33:22.755Z,3.20
2023-05-19T07:34:20.761Z,3.10
2023-05-19T07:35:20.791Z,2.60
2023-05-19T07:36:20.808Z,2.70
2023-05-19T07:37:20.763Z,2.70
2023-05-19T07:38:20.741Z,3.20
2023-05-19T07:39:20.829Z,2.90
2023-05-19T07:40:22.684Z,3.00
2023-05-19T07:41:20.799Z,2.60
2023-05-19T07:42:20.739Z,2.90
2023-05-19T07:43:20.704Z,2.90
2023-05-19T07:44:20.666Z,2.80
2023-05-19T07:45:20.743Z,2.90
2023-05-19T07:46:20.752Z,2.90
2023-05-19T07:47:20.896Z,2.80
2023-05-19T07:48:20.651Z,2.40
2023-05-19T07:49:20.617Z,2.60
2023-05-19T07:50:20.643Z,2.90
2023-05-19T07:51:20.602Z,3.10
2023-05-19T07:52:20.614Z,3.00
2023-05-19T07:53:20.601Z,2.60
2023-05-19T07:54:20.742Z,2.20
2023-05-19T07:55:20.608Z,2.70
2023-05-19T07:56:20.557Z,2.90
2023-05-19T07:57:20.540Z,2.40
2023-05-19T07:58:20.526Z,2.40
2023-05-19T07:59:20.487Z,2.20
2023-05-19T08:00:20.569Z,2.80
2023-05-19T08:01:20.586Z,2.70
2023-05-19T08:02:20.523Z,2.40
2023-05-19T08:03:20.798Z,2.20
2023-05-19T08:04:20.598Z,2.20
2023-05-19T08:05:20.453Z,2.20
2023-05-19T08:06:20.442Z,2.30
2023-05-19T08:07:20.462Z,2.70
2023-05-19T08:08:20.696Z,2.30
2023-05-19T08:09:20.463Z,2.40
2023-05-19T08:10:20.359Z,2.60
2023-05-19T08:11:20.340Z,2.50
2023-05-19T08:12:20.403Z,2.50
2023-05-19T08:13:20.410Z,2.50
2023-05-19T08:14:20.489Z,2.20
2023-05-19T08:15:20.498Z,2.30
2023-05-19T08:16:20.429Z,2.40
2023-05-19T08:17:20.282Z,2.10
2023-05-19T08:18:20.356Z,2.60
2023-05-19T08:19:20.363Z,2.40
2023-05-19T08:20:20.306Z,2.10
2023-05-19T08:21:20.246Z,2.40
2023-05-19T08:22:20.588Z,2.60
2023-05-19T08:23:20.261Z,2.70
2023-05-19T08:24:20.232Z,2.20
2023-05-19T08:25:20.348Z,2.60
2023-05-19T08:26:20.216Z,2.20
2023-05-19T08:27:20.181Z,2.40
2023-05-19T08:28:20.342Z,2.60
2023-05-19T08:29:20.234Z,2.20
2023-05-19T08:30:20.234Z,2.60
2023-05-19T08:31:20.354Z,2.50
2023-05-19T08:32:20.133Z,2.50
2023-05-19T08:33:20.169Z,2.30
2023-05-19T08:34:20.107Z,2.30
2023-05-19T08:35:20.166Z,2.20
2023-05-19T08:36:20.088Z,2.70
2023-05-19T08:37:20.120Z,2.70
2023-05-19T08:38:20.134Z,2.40
2023-05-19T08:39:20.148Z,2.20
2023-05-19T08:40:20.042Z,2.50
2023-05-19T08:41:19.978Z,2.50
2023-05-19T08:42:20.046Z,2.70
2023-05-19T08:43:20.123Z,2.40
2023-05-19T08:44:20.030Z,2.60
2023-05-19T08:45:20.035Z,2.20
2023-05-19T08:46:20.044Z,2.40
2023-05-19T08:47:19.994Z,2.30
2023-05-19T08:48:19.974Z,2.10
2023-05-19T08:49:19.963Z,2.20
2023-05-19T08:50:19.969Z,2.40
2023-05-19T08:51:19.963Z,2.50
2023-05-19T08:52:19.983Z,2.30
2023-05-19T08:53:32.376Z,2.10
2023-05-19T08:54:20.919Z,2.20
2023-05-19T08:55:19.912Z,2.30
2023-05-19T08:56:19.970Z,2.60
2023-05-19T08:57:19.918Z,2.50
2023-05-19T08:58:19.845Z,1.90
2023-05-19T08:59:19.864Z,2.20
2023-05-19T09:00:19.802Z,2.30
2023-05-19T09:01:19.940Z,2.30
2023-05-19T09:02:19.847Z,2.10
2023-05-19T09:03:23.752Z,2.00
2023-05-19T09:04:19.995Z,2.40
2023-05-19T09:05:20.058Z,1.90
2023-05-19T09:06:20.004Z,2.40
2023-05-19T09:07:19.753Z,2.20
2023-05-19T09:08:19.726Z,2.30
2023-05-19T09:09:19.717Z,2.20
2023-05-19T09:10:19.907Z,2.40
2023-05-19T09:11:21.702Z,2.20
2023-05-19T09:12:19.737Z,2.30
2023-05-19T09:13:19.666Z,2.40
2023-05-19T09:14:19.654Z,2.00
2023-05-19T09:15:19.728Z,2.20
2023-05-19T09:16:19.673Z,2.30
2023-05-19T09:17:19.720Z,2.20
2023-05-19T09:18:21.588Z,2.20
2023-05-19T09:19:19.678Z,1.90
2023-05-19T09:20:19.729Z,2.00
2023-05-19T09:21:19.615Z,2.10
2023-05-19T09:22:19.597Z,2.40
2023-05-19T09:23:19.634Z,1.80
2023-05-19T09:24:19.590Z,2.10
2023-05-19T09:25:19.581Z,2.40
2023-05-19T09:26:19.606Z,2.50
2023-05-19T09:27:19.545Z,2.20
2023-05-19T09:28:19.502Z,2.20
2023-05-19T09:29:19.585Z,2.10
2023-05-19T09:30:19.628Z,2.10
2023-05-19T09:31:19.521Z,2.20
2023-05-19T09:32:19.733Z,1.70
2023-05-19T09:33:19.703Z,2.20
2023-05-19T09:34:19.553Z,2.00
2023-05-19T09:35:19.475Z,2.20
2023-05-19T09:36:19.468Z,2.10
2023-05-19T09:37:19.439Z,2.40
2023-05-19T09:38:19.463Z,2.30
2023-05-19T09:39:19.670Z,2.40
2023-05-19T09:40:19.417Z,2.20
2023-05-19T09:41:19.368Z,2.00
2023-05-19T09:42:19.374Z,2.30
2023-05-19T09:43:19.452Z,2.00
2023-05-19T09:44:19.412Z,2.10
2023-05-19T09:45:19.312Z,1.90
2023-05-19T09:46:19.464Z,2.10
2023-05-19T09:47:19.334Z,2.10
2023-05-19T09:48:19.407Z,2.00
2023-05-19T09:49:19.256Z,1.90
2023-05-19T09:50:19.302Z,2.00
2023-05-19T09:51:19.278Z,2.10
2023-05-19T09:52:19.197Z,1.90
2023-05-19T09:53:19.587Z,2.60
2023-05-19T09:54:20.557Z,2.20
2023-05-19T09:55:19.237Z,2.50
2023-05-19T09:56:19.221Z,1.80
2023-05-19T09:57:19.223Z,2.00
2023-05-19T09:58:19.244Z,2.30
2023-05-19T09:59:19.186Z,2.20
2023-05-19T10:00:19.183Z,2.20
2023-05-19T10:01:19.393Z,2.20
2023-05-19T10:02:19.103Z,2.00
2023-05-19T10:03:19.212Z,2.00
2023-05-19T10:04:19.143Z,2.00
2023-05-19T10:05:19.182Z,1.90
2023-05-19T10:06:19.150Z,2.20
2023-05-19T10:07:19.176Z,2.10
2023-05-19T10:08:19.111Z,1.70
2023-05-19T10:09:19.076Z,2.00
2023-05-19T10:10:19.126Z,1.80
2023-05-19T10:11:19.156Z,2.00
2023-05-19T10:12:19.088Z,2.30
2023-05-19T10:13:18.998Z,2.00
2023-05-19T10:14:19.082Z,1.80
2023-05-19T10:15:20.754Z,2.40
2023-05-19T10:16:19.072Z,1.90
2023-05-19T10:17:18.952Z,1.90
2023-05-19T10:18:18.933Z,2.40
2023-05-19T10:19:19.009Z,2.00
2023-05-19T10:20:19.059Z,2.00
2023-05-19T10:21:18.992Z,2.00
2023-05-19T10:22:19.204Z,2.10
2023-05-19T10:23:18.887Z,2.10
2023-05-19T10:24:18.942Z,2.20
2023-05-19T10:25:18.943Z,2.10
2023-05-19T10:26:18.905Z,2.10
2023-05-19T10:27:18.893Z,2.20
2023-05-19T10:28:20.371Z,2.10
2023-05-19T10:29:18.936Z,2.30
2023-05-19T10:30:18.918Z,2.00
2023-05-19T10:31:18.802Z,1.90
2023-05-19T10:32:18.834Z,2.00
2023-05-19T10:33:18.855Z,2.20
2023-05-19T10:34:18.822Z,2.10
2023-05-19T10:35:20.824Z,1.90
2023-05-19T10:36:18.857Z,2.00
2023-05-19T10:37:18.736Z,2.10
2023-05-19T10:38:18.783Z,2.30
2023-05-19T10:39:18.824Z,2.10
2023-05-19T10:40:18.788Z,1.90
2023-05-19T10:41:18.718Z,1.80
2023-05-19T10:42:18.958Z,2.20
2023-05-19T10:43:18.721Z,2.20
2023-05-19T10:44:18.728Z,1.90
2023-05-19T10:45:18.681Z,2.00
2023-05-19T10:46:18.630Z,2.20
2023-05-19T10:47:18.801Z,2.10
2023-05-19T10:48:18.682Z,2.00
2023-05-19T10:49:18.791Z,2.20
2023-05-19T10:50:18.602Z,1.90
2023-05-19T10:51:18.628Z,2.00
2023-05-19T10:52:18.647Z,1.90
2023-05-19T10:53:18.613Z,2.00
2023-05-19T10:54:18.673Z,1.90
2023-05-19T10:55:18.505Z,2.10
2023-05-19T10:56:18.622Z,2.10
2023-05-19T10:57:18.576Z,2.10
2023-05-19T10:58:18.612Z,1.80
2023-05-19T10:59:18.575Z,1.90
2023-05-19T11:00:18.518Z,1.90
2023-05-19T11:01:18.582Z,1.90
2023-05-19T11:02:18.559Z,1.90
2023-05-19T11:03:18.789Z,2.00
2023-05-19T11:04:18.532Z,1.90
2023-05-19T11:05:18.508Z,2.00
2023-05-19T11:06:18.440Z,1.90
2023-05-19T11:07:18.519Z,2.20
2023-05-19T11:08:18.457Z,2.10
2023-05-19T11:09:19.503Z,2.00
2023-05-19T11:10:18.595Z,1.80
2023-05-19T11:11:18.430Z,2.10
2023-05-19T11:12:18.464Z,2.10
2023-05-19T11:13:18.352Z,2.20
2023-05-19T11:14:18.357Z,2.20
2023-05-19T11:15:18.335Z,2.00
2023-05-19T11:16:18.380Z,2.30
2023-05-19T11:17:20.288Z,2.60
2023-05-19T11:18:18.347Z,2.40
2023-05-19T11:19:18.346Z,2.10
2023-05-19T11:20:18.318Z,2.40
2023-05-19T11:21:18.317Z,2.10
2023-05-19T11:22:18.356Z,2.20
2023-05-19T11:23:18.315Z,2.00
2023-05-19T11:24:20.213Z,2.20
2023-05-19T11:25:18.320Z,2.00
2023-05-19T11:26:18.241Z,2.00
2023-05-19T11:27:18.220Z,2.20
2023-05-19T11:28:18.161Z,2.20
2023-05-19T11:29:18.172Z,2.00
2023-05-19T11:30:18.222Z,2.10
2023-05-19T11:31:18.413Z,1.90
2023-05-19T11:32:18.176Z,2.10
2023-05-19T11:33:18.176Z,2.10
2023-05-19T11:34:18.159Z,2.00
2023-05-19T11:35:18.156Z,1.90
2023-05-19T11:36:18.188Z,1.70
2023-05-19T11:37:18.132Z,2.00
2023-05-19T11:38:18.138Z,2.30
2023-05-19T11:39:18.217Z,2.10
2023-05-19T11:40:18.176Z,2.30
2023-05-19T11:41:19.529Z,2.40
2023-05-19T11:42:18.112Z,2.30
2023-05-19T11:43:18.054Z,2.70
2023-05-19T11:44:18.057Z,2.00
2023-05-19T11:45:18.078Z,1.90
2023-05-19T11:46:18.488Z,1.90
2023-05-19T11:47:18.047Z,2.10
2023-05-19T11:48:18.103Z,2.10
2023-05-19T11:49:17.994Z,2.10
2023-05-19T11:50:18.031Z,2.00
2023-05-19T11:51:17.959Z,1.90
2023-05-19T11:52:18.114Z,2.20
2023-05-19T11:53:20.172Z,2.20
2023-05-19T11:54:17.995Z,2.20
2023-05-19T11:55:18.011Z,1.70
2023-05-19T11:56:17.994Z,2.00
2023-05-19T11:57:17.904Z,1.90
2023-05-19T11:58:17.864Z,1.80
2023-05-19T11:59:19.881Z,2.30
2023-05-19T12:00:17.874Z,2.00
2023-05-19T12:01:17.877Z,2.10
2023-05-19T12:02:17.920Z,2.10
2023-05-19T12:03:17.918Z,2.00
2023-05-19T12:04:17.852Z,2.20
2023-05-19T12:05:17.958Z,2.20
2023-05-19T12:06:19.843Z,2.30
2023-05-19T12:07:17.788Z,1.90
2023-05-19T12:08:17.848Z,2.50
2023-05-19T12:09:19.624Z,2.10
2023-05-19T12:10:17.770Z,2.10
2023-05-19T12:11:18.157Z,2.20
2023-05-19T12:12:17.760Z,2.10
2023-05-19T12:13:17.925Z,2.20
2023-05-19T12:14:17.714Z,2.20
2023-05-19T12:15:17.854Z,2.20
2023-05-19T12:16:17.757Z,1.90
2023-05-19T12:17:17.709Z,2.50
2023-05-19T12:18:17.695Z,1.80
2023-05-19T12:19:17.770Z,1.80
2023-05-19T12:20:17.742Z,1.70
2023-05-19T12:21:17.694Z,2.20
2023-05-19T12:22:17.667Z,2.00
2023-05-19T12:23:17.741Z,1.90
2023-05-19T12:24:17.577Z,2.30
2023-05-19T12:25:17.604Z,1.90
2023-05-19T12:26:17.577Z,2.40
2023-05-19T12:27:21.106Z,2.20
2023-05-19T12:28:17.602Z,2.00
2023-05-19T12:29:17.531Z,2.00
2023-05-19T12:30:17.549Z,2.10
2023-05-19T12:31:17.554Z,2.20
2023-05-19T12:32:17.552Z,2.30
2023-05-19T12:33:17.492Z,2.00
2023-05-19T12:34:17.657Z,2.00
2023-05-19T12:35:17.479Z,2.20
2023-05-19T12:36:17.462Z,2.00
2023-05-19T12:37:17.507Z,2.20
2023-05-19T12:38:17.474Z,2.60
2023-05-19T12:39:18.431Z,2.00
2023-05-19T12:40:17.437Z,2.40
2023-05-19T12:41:17.494Z,2.10
2023-05-19T12:42:17.552Z,1.90
2023-05-19T12:43:17.417Z,2.30
2023-05-19T12:44:17.427Z,2.10
2023-05-19T12:45:17.357Z,2.50
2023-05-19T12:46:17.415Z,2.40
2023-05-19T12:47:17.340Z,2.30
2023-05-19T12:48:17.392Z,1.90
2023-05-19T12:49:17.792Z,2.10
2023-05-19T12:50:17.287Z,1.90
2023-05-19T12:51:17.371Z,2.00
2023-05-19T12:52:17.334Z,2.10
2023-05-19T12:53:17.325Z,2.30
2023-05-19T12:54:17.354Z,2.30
2023-05-19T12:55:18.812Z,1.90
2023-05-19T12:56:17.241Z,2.00
2023-05-19T12:57:17.351Z,2.00
2023-05-19T12:58:17.260Z,2.50
2023-05-19T12:59:26.969Z,2.10
2023-05-19T13:00:18.305Z,1.80
2023-05-19T13:01:17.706Z,2.20
2023-05-19T13:02:19.197Z,2.20
2023-05-19T13:03:17.430Z,2.20
2023-05-19T13:04:17.184Z,2.20
2023-05-19T13:05:17.251Z,2.20
2023-05-19T13:06:17.134Z,2.20
2023-05-19T13:07:17.175Z,2.20
2023-05-19T13:08:19.050Z,2.00
2023-05-19T13:09:17.185Z,1.90
2023-05-19T13:10:17.184Z,1.90
2023-05-19T13:11:17.030Z,2.20
2023-05-19T13:12:17.082Z,2.30
2023-05-19T13:13:17.082Z,2.10
2023-05-19T13:14:17.105Z,1.80
2023-05-19T13:15:17.090Z,2.10